createdAt,value
2022-12-18T00:00:53.855Z,9.25
2022-12-18T00:03:47.941Z,8.68
2022-12-18T00:06:38.843Z,8.50
2022-12-18T00:09:31.579Z,9.18
2022-12-18T00:12:30.054Z,9.25
2022-12-18T00:15:18.763Z,9.65
2022-12-18T00:18:08.141Z,9.55
2022-12-18T00:20:57.836Z,8.95
2022-12-18T00:23:49.109Z,8.93
2022-12-18T00:26:38.660Z,8.43
2022-12-18T00:29:27.163Z,8.32
2022-12-18T00:32:15.411Z,8.30
2022-12-18T00:37:53.053Z,7.75
2022-12-18T00:40:43.618Z,7.90
2022-12-18T00:43:33.709Z,7.53
2022-12-18T00:46:23.258Z,7.50
2022-12-18T00:49:13.510Z,6.75
2022-12-18T00:52:02.738Z,7.45
2022-12-18T00:57:41.307Z,6.57
2022-12-18T01:00:29.855Z,6.43
2022-12-18T01:03:18.823Z,6.70
2022-12-18T01:06:09.920Z,6.70
2022-12-18T01:08:59.043Z,6.35
2022-12-18T01:11:47.588Z,5.93
2022-12-18T01:14:37.686Z,6.90
2022-12-18T01:17:25.990Z,6.15
2022-12-18T01:20:16.391Z,6.03
2022-12-18T01:23:04.810Z,5.88
2022-12-18T01:25:53.764Z,5.50
2022-12-18T01:28:42.218Z,5.10
2022-12-18T01:31:34.565Z,5.53
2022-12-18T01:34:23.914Z,4.30
2022-12-18T01:37:12.957Z,4.82
2022-12-18T01:40:01.547Z,5.03
2022-12-18T01:45:41.783Z,4.50
2022-12-18T01:48:32.053Z,4.28
2022-12-18T01:51:21.033Z,4.72
2022-12-18T01:54:09.957Z,4.85
2022-12-18T01:56:59.560Z,4.88
2022-12-18T01:59:53.987Z,5.05
2022-12-18T02:02:42.924Z,4.70
2022-12-18T02:05:43.274Z,5.57
2022-12-18T02:08:36.735Z,5.97
2022-12-18T02:11:39.399Z,5.80
2022-12-18T02:14:34.319Z,6.40
2022-12-18T02:17:25.297Z,5.28
2022-12-18T02:20:20.100Z,6.57
2022-12-18T02:23:21.929Z,6.15
2022-12-18T02:26:18.328Z,6.60
2022-12-18T02:29:11.105Z,6.60
2022-12-18T02:32:02.223Z,6.50
2022-12-18T02:34:53.476Z,6.43
2022-12-18T02:37:46.265Z,7.07
2022-12-18T02:40:35.650Z,6.63
2022-12-18T02:43:26.249Z,6.05
2022-12-18T02:46:32.195Z,6.57
2022-12-18T02:49:38.667Z,6.55
2022-12-18T02:52:35.645Z,7.38
2022-12-18T02:55:38.884Z,6.53
2022-12-18T02:58:40.660Z,6.97
2022-12-18T03:01:41.635Z,7.32
2022-12-18T03:04:35.421Z,6.90
2022-12-18T03:07:30.416Z,7.00
2022-12-18T03:10:26.937Z,7.53
2022-12-18T03:13:19.724Z,7.30
2022-12-18T03:16:13.831Z,7.53
2022-12-18T03:19:05.918Z,8.07
2022-12-18T03:21:58.624Z,7.85
2022-12-18T03:24:49.013Z,7.97
2022-12-18T03:27:40.181Z,7.47
2022-12-18T03:30:34.036Z,8.05
2022-12-18T03:33:30.265Z,7.95
2022-12-18T03:36:19.733Z,7.90
2022-12-18T03:39:09.734Z,8.48
2022-12-18T03:42:06.819Z,8.55
2022-12-18T03:45:07.869Z,7.80
2022-12-18T03:48:04.303Z,8.07
2022-12-18T03:51:02.809Z,7.68
2022-12-18T03:53:58.230Z,7.68
2022-12-18T03:56:59.172Z,7.80
2022-12-18T03:59:52.116Z,7.15
2022-12-18T04:02:48.698Z,7.47
2022-12-18T04:08:37.992Z,6.00
2022-12-18T04:11:28.753Z,6.70
2022-12-18T04:14:18.535Z,6.95
2022-12-18T04:17:10.867Z,6.53
2022-12-18T04:19:59.527Z,6.55
2022-12-18T04:22:48.463Z,6.55
2022-12-18T04:25:38.843Z,5.97
2022-12-18T04:28:31.052Z,6.18
2022-12-18T04:31:19.834Z,6.15
2022-12-18T04:37:03.041Z,5.85
2022-12-18T04:39:52.451Z,5.60
2022-12-18T04:42:53.796Z,5.53
2022-12-18T04:45:42.479Z,4.95
2022-12-18T04:48:31.410Z,5.20
2022-12-18T04:51:25.962Z,5.03
2022-12-18T04:54:15.409Z,5.50
2022-12-18T04:57:03.637Z,5.25
2022-12-18T04:59:53.791Z,5.72
2022-12-18T05:02:42.169Z,6.20
2022-12-18T05:08:19.634Z,5.40
2022-12-18T05:11:11.867Z,5.93
2022-12-18T05:14:00.164Z,5.97
2022-12-18T05:19:40.840Z,6.25
2022-12-18T05:22:29.591Z,5.50
2022-12-18T05:25:18.264Z,5.63
2022-12-18T05:28:07.526Z,5.28
2022-12-18T05:30:57.162Z,5.32
2022-12-18T05:33:47.260Z,5.78
2022-12-18T05:36:35.435Z,5.70
2022-12-18T05:42:12.033Z,5.78
2022-12-18T05:45:00.826Z,5.40
2022-12-18T05:47:49.480Z,6.00
2022-12-18T05:50:40.496Z,5.47
2022-12-18T05:53:29.718Z,5.97
2022-12-18T05:56:20.742Z,5.93
2022-12-18T05:59:09.557Z,6.32
2022-12-18T06:01:59.191Z,6.03
2022-12-18T06:04:47.683Z,6.20
2022-12-18T06:07:37.900Z,6.90
2022-12-18T06:10:26.064Z,6.47
2022-12-18T06:16:05.503Z,6.13
2022-12-18T06:18:54.363Z,7.88
2022-12-18T06:21:42.515Z,5.65
2022-12-18T06:27:21.805Z,6.68
2022-12-18T06:30:12.183Z,6.10
2022-12-18T06:33:01.454Z,6.88
2022-12-18T06:38:39.522Z,6.38
2022-12-18T06:41:30.907Z,6.65
2022-12-18T06:44:19.217Z,6.75
2022-12-18T06:47:08.114Z,6.70
2022-12-18T06:49:56.531Z,6.00
2022-12-18T06:52:45.509Z,6.50
2022-12-18T06:55:34.118Z,6.53
2022-12-18T07:01:14.714Z,5.57
2022-12-18T07:04:04.168Z,5.70
2022-12-18T07:06:52.308Z,5.45
2022-12-18T07:09:41.020Z,5.30
2022-12-18T07:12:29.975Z,6.88
2022-12-18T07:15:20.165Z,6.18
2022-12-18T07:18:08.459Z,5.18
2022-12-18T07:20:57.427Z,6.18
2022-12-18T07:23:46.254Z,5.65
2022-12-18T07:26:35.303Z,5.20
2022-12-18T07:29:24.343Z,5.53
2022-12-18T07:32:14.371Z,6.25
2022-12-18T07:35:02.850Z,6.18
2022-12-18T07:37:51.518Z,5.55
2022-12-18T07:40:39.772Z,6.32
2022-12-18T07:43:28.539Z,5.47
2022-12-18T07:46:17.491Z,6.50
2022-12-18T07:49:08.213Z,5.38
2022-12-18T07:51:57.815Z,5.72
2022-12-18T07:54:46.593Z,5.43
2022-12-18T07:57:49.863Z,6.70
2022-12-18T08:00:39.699Z,7.25
2022-12-18T08:03:28.025Z,5.85
2022-12-18T08:09:07.000Z,6.57
2022-12-18T08:11:55.681Z,6.50
2022-12-18T08:14:44.465Z,6.85
2022-12-18T08:17:32.872Z,8.00
2022-12-18T08:20:21.038Z,6.80
2022-12-18T08:23:11.113Z,8.90
2022-12-18T08:26:01.290Z,7.90
2022-12-18T08:28:50.204Z,8.38
2022-12-18T08:31:39.572Z,8.23
2022-12-18T08:37:16.480Z,7.35
2022-12-18T08:43:13.106Z,7.75
2022-12-18T08:46:01.621Z,8.38
2022-12-18T08:48:50.940Z,7.78
2022-12-18T08:51:41.398Z,7.88
2022-12-18T08:54:31.444Z,7.95
2022-12-18T08:57:21.521Z,9.40
2022-12-18T09:00:11.167Z,8.73
2022-12-18T09:03:00.163Z,8.30
2022-12-18T09:05:49.447Z,8.82
2022-12-18T09:08:39.970Z,8.63
2022-12-18T09:11:30.844Z,9.05
2022-12-18T09:14:20.912Z,8.32
2022-12-18T09:17:09.184Z,9.10
2022-12-18T09:22:45.727Z,9.02
2022-12-18T09:25:37.121Z,8.85
2022-12-18T09:28:25.244Z,9.95
2022-12-18T09:31:18.816Z,9.20
2022-12-18T09:34:10.102Z,9.20
2022-12-18T09:36:59.122Z,8.48
2022-12-18T09:39:47.584Z,9.18
2022-12-18T09:42:37.060Z,9.18
2022-12-18T09:45:27.730Z,9.70
2022-12-18T09:48:23.725Z,9.32
2022-12-18T09:51:18.504Z,9.50
2022-12-18T09:54:10.018Z,11.93
2022-12-18T09:57:01.055Z,8.80
2022-12-18T09:59:59.574Z,9.85
2022-12-18T10:05:49.481Z,10.80
2022-12-18T10:08:49.653Z,10.27
2022-12-18T10:11:51.881Z,9.65
2022-12-18T10:14:52.524Z,10.32
2022-12-18T10:17:55.164Z,10.30
2022-12-18T10:20:55.409Z,9.82
2022-12-18T10:23:58.599Z,9.52
2022-12-18T10:26:50.829Z,10.25
2022-12-18T10:29:42.581Z,8.25
2022-12-18T10:32:34.358Z,9.02
2022-12-18T10:35:28.839Z,8.13
2022-12-18T10:38:29.096Z,8.70
2022-12-18T10:41:29.350Z,8.63
2022-12-18T10:44:23.360Z,7.65
2022-12-18T10:47:18.673Z,8.73
2022-12-18T10:50:40.946Z,7.82
2022-12-18T10:53:45.601Z,7.80
2022-12-18T10:59:30.892Z,7.18
2022-12-18T11:02:31.316Z,7.53
2022-12-18T11:05:34.292Z,7.88
2022-12-18T11:08:26.085Z,8.23
2022-12-18T11:11:25.438Z,8.70
2022-12-18T11:14:22.571Z,7.93
2022-12-18T11:17:26.553Z,7.50
2022-12-18T11:20:33.114Z,8.13
2022-12-18T11:23:26.240Z,7.78
2022-12-18T11:26:16.985Z,7.68
2022-12-18T11:29:18.763Z,7.68
2022-12-18T11:32:37.020Z,8.10
2022-12-18T11:35:51.329Z,8.05
2022-12-18T11:38:46.866Z,8.45
2022-12-18T11:42:03.319Z,8.50
2022-12-18T11:45:01.366Z,8.50
2022-12-18T11:47:59.361Z,9.07
2022-12-18T11:50:54.251Z,8.20
2022-12-18T11:53:45.423Z,8.60
2022-12-18T11:56:38.750Z,8.30
2022-12-18T11:59:42.336Z,8.80
2022-12-18T12:03:03.085Z,9.52
2022-12-18T12:06:07.733Z,9.13
2022-12-18T12:09:10.757Z,8.85
2022-12-18T12:12:12.739Z,9.50
2022-12-18T12:18:19.559Z,8.48
2022-12-18T12:21:19.555Z,8.80
2022-12-18T12:24:25.617Z,9.27
2022-12-18T12:27:28.260Z,8.80
2022-12-18T12:30:24.664Z,8.13
2022-12-18T12:33:35.147Z,7.78
2022-12-18T12:36:36.912Z,6.40
2022-12-18T12:39:31.227Z,7.50
2022-12-18T12:42:47.001Z,7.35
2022-12-18T12:45:40.414Z,7.10
2022-12-18T12:48:44.227Z,6.63
2022-12-18T12:51:36.852Z,6.43
2022-12-18T12:54:30.665Z,6.85
2022-12-18T12:57:29.756Z,7.25
2022-12-18T13:00:21.305Z,6.57
2022-12-18T13:03:18.286Z,6.82
2022-12-18T13:06:17.541Z,6.72
2022-12-18T13:09:07.481Z,7.22
2022-12-18T13:16:08.020Z,8.10
2022-12-18T13:19:06.059Z,7.95
2022-12-18T13:22:01.000Z,6.93
2022-12-18T13:24:52.536Z,8.18
2022-12-18T13:27:59.929Z,9.18
2022-12-18T13:30:52.602Z,7.85
2022-12-18T13:34:25.112Z,8.52
2022-12-18T13:37:20.576Z,8.73
2022-12-18T13:40:57.072Z,7.63
2022-12-18T13:43:48.222Z,7.78
2022-12-18T13:46:47.262Z,7.57
2022-12-18T13:49:42.561Z,6.90
2022-12-18T13:52:47.848Z,7.68
2022-12-18T13:55:48.420Z,7.20
2022-12-18T13:58:36.818Z,7.05
2022-12-18T14:04:24.480Z,6.63
2022-12-18T14:07:17.136Z,7.50
2022-12-18T14:10:42.285Z,7.47
2022-12-18T14:13:32.064Z,7.65
2022-12-18T14:16:21.452Z,7.20
2022-12-18T14:19:17.127Z,7.40
2022-12-18T14:27:53.696Z,8.15
2022-12-18T14:30:46.278Z,6.90
2022-12-18T14:33:35.499Z,8.13
2022-12-18T14:36:27.891Z,8.40
2022-12-18T14:39:21.297Z,7.78
2022-12-18T14:42:14.621Z,7.90
2022-12-18T14:45:47.461Z,7.20
2022-12-18T14:48:40.403Z,7.70
2022-12-18T14:51:34.045Z,7.90
2022-12-18T14:57:23.992Z,8.70
2022-12-18T15:00:20.827Z,8.05
2022-12-18T15:03:13.402Z,8.63
2022-12-18T15:06:19.944Z,8.13
2022-12-18T15:09:26.622Z,9.10
2022-12-18T15:12:41.778Z,9.90
2022-12-18T15:15:51.375Z,7.95
2022-12-18T15:18:47.967Z,7.82
2022-12-18T15:21:36.583Z,9.05
2022-12-18T15:24:29.979Z,8.82
2022-12-18T15:27:32.289Z,8.65
2022-12-18T15:30:26.792Z,8.02
2022-12-18T15:33:27.754Z,7.95
2022-12-18T15:36:21.642Z,8.02
2022-12-18T15:39:16.321Z,9.20
2022-12-18T15:42:23.990Z,9.10
2022-12-18T15:45:17.562Z,8.27
2022-12-18T15:48:22.490Z,7.65
2022-12-18T15:51:19.116Z,8.50
2022-12-18T15:54:57.370Z,9.13
2022-12-18T15:57:51.995Z,8.70
2022-12-18T16:00:46.836Z,8.70
2022-12-18T16:03:37.010Z,8.27
2022-12-18T16:06:40.339Z,7.97
2022-12-18T16:09:44.463Z,7.85
2022-12-18T16:13:29.804Z,7.78
2022-12-18T16:16:40.841Z,7.43
2022-12-18T16:19:33.133Z,6.97
2022-12-18T16:25:24.235Z,7.18
2022-12-18T16:28:12.310Z,8.32
2022-12-18T16:31:01.144Z,8.48
2022-12-18T16:33:49.653Z,6.80
2022-12-18T16:36:38.215Z,8.13
2022-12-18T16:39:28.384Z,7.88
2022-12-18T16:42:21.779Z,7.15
2022-12-18T16:45:12.656Z,7.95
2022-12-18T16:48:01.517Z,8.32
2022-12-18T16:50:49.857Z,7.03
2022-12-18T16:53:38.939Z,7.85
2022-12-18T16:56:29.031Z,9.10
2022-12-18T16:59:18.426Z,7.15
2022-12-18T17:02:17.064Z,8.57
2022-12-18T17:05:08.420Z,8.73
2022-12-18T17:07:56.832Z,7.85
2022-12-18T17:10:46.049Z,8.57
2022-12-18T17:13:36.181Z,7.55
2022-12-18T17:16:26.717Z,8.68
2022-12-18T17:19:17.711Z,9.00
2022-12-18T17:22:08.653Z,8.82
2022-12-18T17:24:57.099Z,8.13
2022-12-18T17:27:46.062Z,8.73
2022-12-18T17:30:35.901Z,7.63
2022-12-18T17:33:25.968Z,8.57
2022-12-18T17:36:14.488Z,7.63
2022-12-18T17:39:04.134Z,8.68
2022-12-18T17:41:52.621Z,8.05
2022-12-18T17:44:42.854Z,8.02
2022-12-18T17:47:32.532Z,7.80
2022-12-18T17:50:21.684Z,8.63
2022-12-18T17:53:09.871Z,8.30
2022-12-18T17:56:01.783Z,7.82
2022-12-18T17:58:51.841Z,7.47
2022-12-18T18:02:08.538Z,7.45
2022-12-18T18:05:07.190Z,7.32
2022-12-18T18:07:57.589Z,8.00
2022-12-18T18:10:49.729Z,7.70
2022-12-18T18:13:55.356Z,7.65
2022-12-18T18:16:47.798Z,6.85
2022-12-18T18:19:54.962Z,6.95
2022-12-18T18:22:56.965Z,7.10
2022-12-18T18:25:56.551Z,6.43
2022-12-18T18:28:50.209Z,6.47
2022-12-18T18:31:41.041Z,6.47
2022-12-18T18:34:31.962Z,6.03
2022-12-18T18:37:22.251Z,5.82
2022-12-18T18:40:13.460Z,6.40
2022-12-18T18:43:02.876Z,5.90
2022-12-18T18:45:57.808Z,6.47
2022-12-18T18:48:47.160Z,5.65
2022-12-18T18:51:36.970Z,5.75
2022-12-18T18:54:28.426Z,5.40
2022-12-18T18:57:20.978Z,6.88
2022-12-18T19:00:12.937Z,6.30
2022-12-18T19:03:01.886Z,7.22
2022-12-18T19:05:56.203Z,6.43
2022-12-18T19:08:45.085Z,6.63
2022-12-18T19:14:41.378Z,6.53
2022-12-18T19:17:31.891Z,6.97
2022-12-18T19:20:20.580Z,7.35
2022-12-18T19:23:09.439Z,5.95
2022-12-18T19:26:26.883Z,6.43
2022-12-18T19:29:15.139Z,6.07
2022-12-18T19:32:05.700Z,5.53
2022-12-18T19:34:56.624Z,5.35
2022-12-18T19:37:45.214Z,5.00
2022-12-18T19:40:38.514Z,4.95
2022-12-18T19:43:27.003Z,5.43
2022-12-18T19:46:16.916Z,5.50
2022-12-18T19:49:11.821Z,4.78
2022-12-18T19:52:08.296Z,5.32
2022-12-18T19:55:04.282Z,5.20
2022-12-18T19:58:23.695Z,5.70
2022-12-18T20:01:16.491Z,5.25
2022-12-18T20:04:19.971Z,4.95
2022-12-18T20:07:12.122Z,5.32
2022-12-18T20:10:09.461Z,4.22
2022-12-18T20:12:58.663Z,4.40
2022-12-18T20:15:54.363Z,4.68
2022-12-18T20:18:44.741Z,4.47
2022-12-18T20:21:35.947Z,3.90
2022-12-18T20:24:26.877Z,4.35
2022-12-18T20:27:19.647Z,4.05
2022-12-18T20:30:10.248Z,4.65
2022-12-18T20:33:00.397Z,3.92
2022-12-18T20:35:50.501Z,4.90
2022-12-18T20:38:42.488Z,4.03
2022-12-18T20:41:38.359Z,4.35
2022-12-18T20:44:28.875Z,3.85
2022-12-18T20:47:17.952Z,3.72
2022-12-18T20:50:08.788Z,4.90
2022-12-18T20:52:58.594Z,4.25
2022-12-18T20:55:49.851Z,4.70
2022-12-18T20:58:39.704Z,3.80
2022-12-18T21:01:30.708Z,4.18
2022-12-18T21:04:19.796Z,4.00
2022-12-18T21:07:09.313Z,4.30
2022-12-18T21:09:57.666Z,4.57
2022-12-18T21:12:58.183Z,4.72
2022-12-18T21:15:48.561Z,3.85
2022-12-18T21:18:37.470Z,3.80
2022-12-18T21:21:27.128Z,4.53
2022-12-18T21:24:17.420Z,4.68
2022-12-18T21:27:06.381Z,4.07
2022-12-18T21:29:57.061Z,4.40
2022-12-18T21:32:45.669Z,3.92
2022-12-18T21:38:23.040Z,4.00
2022-12-18T21:41:37.440Z,3.80
2022-12-18T21:44:29.798Z,4.13
2022-12-18T21:47:23.346Z,4.40
2022-12-18T21:50:12.611Z,4.38
2022-12-18T21:55:58.596Z,4.40
2022-12-18T21:58:55.433Z,4.90
2022-12-18T22:01:46.671Z,4.53
2022-12-18T22:04:37.558Z,4.35
2022-12-18T22:07:27.100Z,4.68
2022-12-18T22:10:16.992Z,4.68
2022-12-18T22:13:06.093Z,4.85
2022-12-18T22:18:43.357Z,4.57
2022-12-18T22:24:24.390Z,4.13
2022-12-18T22:27:13.278Z,4.55
2022-12-18T22:30:06.643Z,4.65
2022-12-18T22:32:56.433Z,5.22
2022-12-18T22:35:45.120Z,4.10
2022-12-18T22:38:36.236Z,5.35
2022-12-18T22:41:24.925Z,4.15
2022-12-18T22:44:15.947Z,4.30
2022-12-18T22:47:07.408Z,4.50
2022-12-18T22:49:56.900Z,5.32
2022-12-18T22:52:45.603Z,3.92
2022-12-18T22:55:36.183Z,4.40
2022-12-18T22:58:24.995Z,4.78
2022-12-18T23:01:22.431Z,4.28
2022-12-18T23:04:12.733Z,4.40
2022-12-18T23:07:02.408Z,3.97
2022-12-18T23:09:52.304Z,4.80
2022-12-18T23:12:51.737Z,4.00
2022-12-18T23:15:44.748Z,4.75
2022-12-18T23:18:34.910Z,4.07
2022-12-18T23:21:24.613Z,4.53
2022-12-18T23:24:15.025Z,4.38
2022-12-18T23:27:05.009Z,5.20
2022-12-18T23:29:59.045Z,4.45
2022-12-18T23:32:48.255Z,4.65
2022-12-18T23:35:37.449Z,4.47
2022-12-18T23:38:26.481Z,4.68
2022-12-18T23:41:17.596Z,4.20
2022-12-18T23:44:06.576Z,4.43
2022-12-18T23:46:57.643Z,5.22
2022-12-18T23:49:46.688Z,5.47
2022-12-18T23:52:36.220Z,4.93
2022-12-18T23:55:24.858Z,4.57
2022-12-18T23:58:19.715Z,4.57
